createdAt,value
2023-05-09T08:35:31.003Z,35.38
2023-05-09T08:37:57.755Z,33.22
2023-05-09T08:40:24.567Z,32.89
2023-05-09T08:42:51.566Z,32.76
2023-05-09T08:45:23.619Z,31.80
2023-05-09T08:47:50.784Z,32.19
2023-05-09T08:50:17.987Z,31.62
2023-05-09T08:52:44.969Z,30.97
2023-05-09T08:55:12.801Z,30.71
2023-05-09T08:57:39.459Z,30.00
2023-05-09T09:00:06.697Z,31.03
2023-05-09T09:02:34.282Z,31.76
2023-05-09T09:05:02.528Z,30.38
2023-05-09T09:07:31.331Z,28.36
2023-05-09T09:09:59.117Z,28.29
2023-05-09T09:12:26.401Z,28.78
2023-05-09T09:14:54.335Z,29.21
2023-05-09T09:17:21.705Z,29.32
2023-05-09T09:19:50.501Z,29.03
2023-05-09T09:22:19.387Z,27.28
2023-05-09T09:24:46.315Z,27.54
2023-05-09T09:27:13.012Z,27.97
2023-05-09T09:29:39.739Z,28.45
2023-05-09T09:32:07.472Z,27.34
2023-05-09T09:34:34.181Z,26.94
2023-05-09T09:37:00.875Z,27.97
2023-05-09T09:39:27.618Z,26.60
2023-05-09T09:41:54.433Z,25.92
2023-05-09T09:44:22.430Z,26.44
2023-05-09T09:46:54.107Z,27.36
2023-05-09T09:49:22.791Z,26.10
2023-05-09T09:51:54.453Z,26.37
2023-05-09T09:54:21.357Z,27.39
2023-05-09T09:56:50.159Z,25.54
2023-05-09T09:59:20.184Z,26.09
2023-05-09T10:01:54.833Z,26.23
2023-05-09T10:04:21.605Z,25.24
2023-05-09T10:07:13.867Z,25.41
2023-05-09T10:09:41.768Z,25.10
2023-05-09T10:12:09.064Z,25.71
2023-05-09T10:14:36.830Z,25.31
2023-05-09T10:17:05.171Z,27.02
2023-05-09T10:19:32.782Z,25.21
2023-05-09T10:22:04.422Z,24.70
2023-05-09T10:24:49.019Z,24.43
2023-05-09T10:27:18.942Z,24.67
2023-05-09T10:29:47.313Z,24.16
2023-05-09T10:32:18.441Z,24.33
2023-05-09T10:34:48.322Z,22.92
2023-05-09T10:37:16.992Z,25.12
2023-05-09T10:39:44.218Z,24.47
2023-05-09T10:42:11.261Z,24.11
2023-05-09T10:44:38.438Z,24.40
2023-05-09T10:47:05.921Z,24.62
2023-05-09T10:49:34.354Z,24.09
2023-05-09T10:52:02.959Z,24.70
2023-05-09T10:54:33.597Z,24.24
2023-05-09T10:57:01.036Z,25.40
2023-05-09T10:59:51.888Z,24.60
2023-05-09T11:02:21.875Z,23.74
2023-05-09T11:04:48.609Z,24.69
2023-05-09T11:07:27.459Z,24.85
2023-05-09T11:10:07.570Z,22.98
2023-05-09T11:12:34.292Z,23.52
2023-05-09T11:15:08.296Z,23.80
2023-05-09T11:17:38.729Z,23.15
2023-05-09T11:20:06.738Z,23.42
2023-05-09T11:22:39.704Z,23.08
2023-05-09T11:25:08.609Z,23.03
2023-05-09T11:27:49.799Z,23.72
2023-05-09T11:30:18.825Z,23.36
2023-05-09T11:32:58.075Z,23.32
2023-05-09T11:35:26.967Z,23.72
2023-05-09T11:38:02.803Z,21.94
2023-05-09T11:40:30.475Z,23.48
2023-05-09T11:42:58.981Z,22.48
2023-05-09T11:45:28.805Z,23.22
2023-05-09T11:47:57.240Z,23.16
2023-05-09T11:50:24.615Z,22.93
2023-05-09T11:52:51.710Z,24.29
2023-05-09T11:55:22.266Z,21.29
2023-05-09T11:57:51.150Z,21.16
2023-05-09T12:00:24.336Z,21.19
2023-05-09T12:02:51.802Z,21.75
2023-05-09T12:05:23.068Z,22.17
2023-05-09T12:07:50.399Z,22.71
2023-05-09T12:10:20.527Z,22.88
2023-05-09T12:12:49.024Z,23.84
2023-05-09T12:15:17.278Z,21.71
2023-05-09T12:17:45.215Z,23.01
2023-05-09T12:20:12.536Z,21.88
2023-05-09T12:22:43.274Z,21.42
2023-05-09T12:25:12.094Z,23.32
2023-05-09T12:27:40.504Z,22.69
2023-05-09T12:30:12.245Z,22.96
2023-05-09T12:32:40.559Z,23.39
2023-05-09T12:35:09.660Z,23.19
2023-05-09T12:37:36.505Z,23.28
2023-05-09T12:40:08.848Z,23.19
2023-05-09T12:42:36.224Z,23.85
2023-05-09T12:45:03.786Z,25.55
2023-05-09T12:47:31.943Z,23.46
2023-05-09T12:50:02.986Z,22.96
2023-05-09T12:53:01.345Z,24.54
2023-05-09T12:55:29.169Z,24.51
2023-05-09T12:58:00.890Z,23.87
2023-05-09T13:00:27.868Z,25.42
2023-05-09T13:02:54.838Z,25.64
2023-05-09T13:05:23.066Z,25.18
2023-05-09T13:07:52.403Z,24.85
2023-05-09T13:10:24.041Z,24.98
2023-05-09T13:12:51.563Z,24.41
2023-05-09T13:15:22.981Z,25.45
2023-05-09T13:17:50.984Z,25.93
2023-05-09T13:20:18.532Z,25.13
2023-05-09T13:22:46.275Z,25.50
2023-05-09T13:25:13.134Z,26.20
2023-05-09T13:27:39.930Z,26.04
2023-05-09T13:30:10.132Z,26.17
2023-05-09T13:32:37.224Z,26.08
2023-05-09T13:35:06.880Z,26.67
2023-05-09T13:37:34.444Z,26.15
2023-05-09T13:40:01.203Z,26.80
2023-05-09T13:42:28.363Z,26.11
2023-05-09T13:44:55.009Z,25.59
2023-05-09T13:47:21.993Z,25.74
2023-05-09T13:49:48.686Z,26.19
2023-05-09T13:52:16.344Z,26.41
2023-05-09T13:54:43.136Z,26.13
2023-05-09T13:57:10.025Z,25.77
2023-05-09T13:59:37.055Z,25.17
2023-05-09T14:02:03.978Z,25.35
2023-05-09T14:04:34.320Z,25.46
2023-05-09T14:07:01.392Z,26.05
2023-05-09T14:09:28.986Z,26.85
2023-05-09T14:11:57.165Z,25.84
2023-05-09T14:14:25.446Z,26.84
2023-05-09T14:16:53.094Z,27.51
2023-05-09T14:19:20.076Z,27.41
2023-05-09T14:21:49.647Z,27.69
2023-05-09T14:24:16.680Z,28.01
2023-05-09T14:26:43.950Z,27.66
2023-05-09T14:29:11.211Z,27.96
2023-05-09T14:31:38.248Z,28.01
2023-05-09T14:34:05.587Z,27.50
2023-05-09T14:36:35.310Z,27.06
2023-05-09T14:39:02.519Z,27.43
2023-05-09T14:41:29.171Z,28.95
2023-05-09T14:43:55.832Z,28.28
2023-05-09T14:46:24.924Z,28.90
2023-05-09T14:48:52.813Z,28.49
2023-05-09T14:51:19.540Z,27.95
2023-05-09T14:53:47.352Z,27.47
2023-05-09T14:56:14.134Z,27.79
2023-05-09T14:58:40.974Z,27.68
2023-05-09T15:01:07.830Z,27.99
2023-05-09T15:03:34.535Z,27.28
2023-05-09T15:06:01.380Z,27.59
2023-05-09T15:08:28.514Z,27.53
2023-05-09T15:10:55.178Z,27.63
2023-05-09T15:13:22.105Z,28.53
2023-05-09T15:15:49.147Z,27.93
2023-05-09T15:18:17.183Z,27.67
2023-05-09T15:20:44.871Z,28.50
2023-05-09T15:23:13.311Z,28.39
2023-05-09T15:25:43.380Z,27.78
2023-05-09T15:28:10.127Z,28.36
2023-05-09T15:30:38.962Z,28.51
2023-05-09T15:33:05.797Z,28.59
2023-05-09T15:35:32.607Z,27.82
2023-05-09T15:37:59.584Z,28.96
2023-05-09T15:40:26.507Z,27.95
2023-05-09T15:42:53.337Z,28.24
2023-05-09T15:45:20.028Z,28.36
2023-05-09T15:47:46.741Z,28.52
2023-05-09T15:50:13.659Z,28.12
2023-05-09T15:52:40.519Z,28.27
2023-05-09T15:55:08.754Z,28.19
2023-05-09T15:57:35.448Z,28.23
2023-05-09T16:00:02.390Z,28.44
2023-05-09T16:02:39.265Z,28.70
2023-05-09T16:05:06.374Z,29.20
2023-05-09T16:07:35.367Z,29.37
2023-05-09T16:10:02.887Z,30.16
2023-05-09T16:12:32.930Z,29.97
2023-05-09T16:14:59.715Z,29.94
2023-05-09T16:17:26.453Z,30.14
2023-05-09T16:19:55.526Z,30.22
2023-05-09T16:22:22.276Z,30.36
2023-05-09T16:24:49.316Z,30.51
2023-05-09T16:27:15.983Z,30.94
2023-05-09T16:29:42.714Z,30.86
2023-05-09T16:32:09.543Z,31.27
2023-05-09T16:34:36.715Z,30.83
2023-05-09T16:37:04.300Z,30.74
2023-05-09T16:39:31.061Z,31.09
2023-05-09T16:41:58.311Z,30.85
2023-05-09T16:44:25.390Z,31.60
2023-05-09T16:46:52.067Z,31.47
2023-05-09T16:49:18.799Z,31.36
2023-05-09T16:51:45.489Z,31.51
2023-05-09T16:54:12.161Z,32.11
2023-05-09T16:56:38.865Z,32.42
2023-05-09T16:59:05.778Z,32.46
2023-05-09T17:01:32.829Z,32.67
2023-05-09T17:04:01.770Z,33.23
2023-05-09T17:06:28.858Z,33.11
2023-05-09T17:08:55.602Z,33.26
2023-05-09T17:11:22.834Z,33.51
2023-05-09T17:13:49.610Z,33.08
2023-05-09T17:16:16.446Z,33.01
2023-05-09T17:18:46.204Z,33.18
2023-05-09T17:21:14.695Z,33.27
2023-05-09T17:23:41.326Z,33.60
2023-05-09T17:26:08.486Z,33.33
2023-05-09T17:28:35.205Z,33.65
2023-05-09T17:31:03.437Z,33.81
2023-05-09T17:33:30.349Z,33.55
2023-05-09T17:35:57.654Z,34.39
2023-05-09T17:38:24.366Z,34.35
2023-05-09T17:40:51.048Z,34.34
2023-05-09T17:43:17.963Z,35.20
2023-05-09T17:45:46.067Z,34.95
2023-05-09T17:48:13.660Z,35.29
2023-05-09T17:50:40.450Z,34.93
2023-05-09T17:53:08.938Z,35.20
2023-05-09T17:55:36.051Z,35.65
2023-05-09T17:58:02.841Z,35.14
2023-05-09T18:00:29.529Z,35.65
2023-05-09T18:02:58.231Z,35.98
2023-05-09T18:05:26.753Z,35.97
2023-05-09T18:07:53.688Z,36.16
2023-05-09T18:10:20.809Z,36.60
2023-05-09T18:12:47.693Z,36.17
2023-05-09T18:15:14.421Z,36.81
2023-05-09T18:17:41.182Z,36.74
2023-05-09T18:20:08.868Z,38.81
2023-05-09T18:22:37.437Z,37.15
2023-05-09T18:25:04.405Z,36.94
2023-05-09T18:27:31.340Z,37.02
2023-05-09T18:29:58.019Z,38.27
2023-05-09T18:32:24.710Z,37.58
2023-05-09T18:34:51.772Z,38.09
2023-05-09T18:37:18.975Z,37.63
2023-05-09T18:39:45.604Z,38.33
2023-05-09T18:42:13.348Z,38.56
2023-05-09T18:44:43.042Z,38.11
2023-05-09T18:47:09.766Z,38.45
2023-05-09T18:49:36.484Z,37.71
2023-05-09T18:52:03.676Z,38.05
2023-05-09T18:54:30.338Z,38.60
2023-05-09T18:56:57.232Z,37.76
2023-05-09T18:59:24.566Z,38.37
2023-05-09T19:01:51.333Z,39.43
2023-05-09T19:04:19.714Z,39.05
2023-05-09T19:06:46.965Z,39.18
2023-05-09T19:09:13.679Z,39.29
2023-05-09T19:11:40.376Z,40.37
2023-05-09T19:14:07.363Z,39.96
